createdAt,value
2023-08-08T00:01:30.188Z,74.70
2023-08-08T00:03:58.286Z,74.60
2023-08-08T00:06:28.136Z,74.50
2023-08-08T00:08:55.969Z,74.70
2023-08-08T00:11:24.194Z,74.80
2023-08-08T00:13:52.011Z,74.80
2023-08-08T00:16:19.921Z,74.50
2023-08-08T00:18:47.785Z,73.90
2023-08-08T00:21:15.609Z,73.80
2023-08-08T00:23:44.851Z,74.20
2023-08-08T00:26:12.774Z,74.00
2023-08-08T00:28:40.637Z,73.90
2023-08-08T00:31:08.519Z,73.40
2023-08-08T00:33:36.328Z,73.70
2023-08-08T00:36:04.336Z,73.90
2023-08-08T00:38:32.158Z,74.00
2023-08-08T00:41:01.627Z,74.10
2023-08-08T00:43:29.534Z,74.00
2023-08-08T00:45:57.411Z,74.00
2023-08-08T00:48:25.837Z,73.50
2023-08-08T00:50:54.862Z,72.90
2023-08-08T00:53:27.081Z,72.40
2023-08-08T00:55:55.977Z,72.40
2023-08-08T00:58:25.303Z,72.30
2023-08-08T01:00:55.781Z,72.10
2023-08-08T01:03:23.751Z,72.30
2023-08-08T01:06:00.962Z,72.30
2023-08-08T01:08:35.061Z,72.10
2023-08-08T01:11:04.398Z,72.10
2023-08-08T01:13:34.834Z,72.50
2023-08-08T01:16:06.011Z,72.50
2023-08-08T01:18:34.866Z,72.70
2023-08-08T01:21:04.774Z,72.60
2023-08-08T01:23:43.560Z,72.30
2023-08-08T01:26:13.360Z,72.50
2023-08-08T01:28:41.683Z,72.40
2023-08-08T01:31:09.594Z,72.40
2023-08-08T01:33:37.488Z,72.40
2023-08-08T01:36:14.722Z,72.30
2023-08-08T01:38:45.429Z,72.10
2023-08-08T01:41:15.055Z,72.50
2023-08-08T01:43:43.613Z,72.60
2023-08-08T01:46:12.091Z,73.00
2023-08-08T01:48:39.922Z,72.80
2023-08-08T01:51:07.923Z,72.60
2023-08-08T01:53:35.754Z,72.70
2023-08-08T01:56:04.106Z,72.70
2023-08-08T01:58:33.280Z,72.30
2023-08-08T02:01:01.060Z,72.60
2023-08-08T02:03:29.064Z,72.50
2023-08-08T02:05:56.919Z,72.60
2023-08-08T02:08:24.755Z,72.90
2023-08-08T02:10:52.554Z,72.80
2023-08-08T02:13:20.365Z,73.20
2023-08-08T02:15:49.864Z,73.30
2023-08-08T02:18:17.718Z,73.30
2023-08-08T02:20:45.583Z,73.30
2023-08-08T02:23:13.393Z,72.80
2023-08-08T02:25:41.182Z,73.00
2023-08-08T02:28:09.025Z,72.60
2023-08-08T02:30:36.822Z,72.70
2023-08-08T02:33:06.395Z,72.70
2023-08-08T02:35:34.242Z,72.70
2023-08-08T02:38:02.061Z,73.10
2023-08-08T02:40:29.861Z,73.40
2023-08-08T02:42:57.648Z,73.80
2023-08-08T02:45:25.439Z,73.40
2023-08-08T02:47:53.269Z,73.30
2023-08-08T02:50:22.435Z,73.20
2023-08-08T02:52:50.397Z,72.70
2023-08-08T02:55:18.504Z,72.40
2023-08-08T02:57:46.307Z,72.90
2023-08-08T03:00:15.113Z,72.90
2023-08-08T03:02:42.988Z,73.30
2023-08-08T03:05:11.070Z,73.50
2023-08-08T03:07:40.229Z,73.80
2023-08-08T03:10:08.419Z,74.10
2023-08-08T03:12:36.339Z,74.40
2023-08-08T03:15:05.377Z,74.40
2023-08-08T03:17:33.543Z,74.40
2023-08-08T03:20:01.430Z,74.20
2023-08-08T03:22:29.528Z,73.50
2023-08-08T03:24:59.364Z,73.20
2023-08-08T03:27:27.307Z,73.00
2023-08-08T03:29:55.096Z,72.60
2023-08-08T03:32:23.005Z,72.70
2023-08-08T03:34:50.877Z,72.50
2023-08-08T03:37:18.747Z,72.50
2023-08-08T03:39:46.552Z,72.60
2023-08-08T03:42:15.773Z,72.60
2023-08-08T03:44:43.598Z,72.90
2023-08-08T03:47:19.309Z,72.70
2023-08-08T03:49:48.460Z,72.50
2023-08-08T03:52:16.641Z,72.10
2023-08-08T03:54:45.325Z,72.10
2023-08-08T03:57:13.151Z,72.50
2023-08-08T03:59:42.368Z,72.30
2023-08-08T04:02:10.236Z,72.40
2023-08-08T04:04:38.046Z,72.30
2023-08-08T04:07:06.104Z,72.40
2023-08-08T04:09:33.970Z,72.40
2023-08-08T04:12:02.198Z,72.70
2023-08-08T04:14:30.389Z,72.40
2023-08-08T04:16:59.796Z,72.60
2023-08-08T04:19:27.755Z,72.60
2023-08-08T04:21:55.561Z,72.90
2023-08-08T04:24:23.358Z,73.00
2023-08-08T04:26:51.152Z,72.90
2023-08-08T04:29:18.949Z,72.80
2023-08-08T04:31:46.779Z,72.80
2023-08-08T04:34:15.923Z,72.80
2023-08-08T04:36:43.715Z,72.60
2023-08-08T04:39:11.534Z,72.50
2023-08-08T04:41:39.318Z,71.70
2023-08-08T04:44:07.125Z,71.70
2023-08-08T04:46:35.004Z,71.70
2023-08-08T04:49:02.872Z,71.20
2023-08-08T04:51:32.007Z,70.40
2023-08-08T04:53:59.823Z,70.20
2023-08-08T04:56:28.164Z,69.60
2023-08-08T04:58:58.064Z,69.60
2023-08-08T05:01:25.942Z,69.70
2023-08-08T05:03:55.409Z,69.40
2023-08-08T05:06:24.450Z,69.00
2023-08-08T05:08:54.577Z,68.30
2023-08-08T05:11:22.407Z,67.70
2023-08-08T05:13:50.521Z,66.90
2023-08-08T05:16:18.425Z,66.40
2023-08-08T05:18:46.478Z,65.30
2023-08-08T05:21:14.379Z,64.90
2023-08-08T05:23:42.223Z,65.30
2023-08-08T05:26:11.368Z,65.30
2023-08-08T05:28:39.257Z,64.90
2023-08-08T05:31:07.134Z,64.90
2023-08-08T05:33:35.028Z,64.50
2023-08-08T05:36:02.833Z,64.50
2023-08-08T05:38:30.645Z,64.50
2023-08-08T05:40:58.434Z,64.30
2023-08-08T05:43:29.860Z,63.70
2023-08-08T05:45:58.772Z,63.10
2023-08-08T05:48:26.651Z,62.60
2023-08-08T05:50:54.752Z,61.30
2023-08-08T05:53:22.569Z,60.80
2023-08-08T05:55:51.241Z,62.30
2023-08-08T05:58:19.101Z,62.50
2023-08-08T06:00:48.840Z,62.50
2023-08-08T06:03:16.690Z,62.00
2023-08-08T06:05:44.812Z,61.40
2023-08-08T06:08:14.455Z,60.70
2023-08-08T06:10:42.284Z,59.20
2023-08-08T06:13:10.142Z,59.60
2023-08-08T06:15:37.972Z,58.60
2023-08-08T06:18:07.496Z,58.80
2023-08-08T06:20:35.656Z,58.20
2023-08-08T06:23:03.524Z,59.90
2023-08-08T06:25:31.465Z,57.90
2023-08-08T06:27:59.534Z,57.60
2023-08-08T06:30:27.378Z,57.40
2023-08-08T06:32:55.294Z,56.60
2023-08-08T06:35:24.459Z,56.50
2023-08-08T06:37:52.337Z,55.20
2023-08-08T06:40:20.222Z,56.00
2023-08-08T06:42:48.068Z,56.40
2023-08-08T06:45:16.050Z,56.40
2023-08-08T06:47:44.331Z,55.30
2023-08-08T06:50:12.271Z,55.20
2023-08-08T06:52:41.457Z,55.10
2023-08-08T06:55:09.237Z,56.50
2023-08-08T06:57:37.373Z,57.70
2023-08-08T07:00:06.833Z,57.80
2023-08-08T07:02:34.742Z,57.10
2023-08-08T07:05:04.766Z,56.40
2023-08-08T07:07:34.306Z,55.40
2023-08-08T07:10:04.142Z,57.80
2023-08-08T07:12:32.144Z,57.40
2023-08-08T07:14:59.950Z,57.10
2023-08-08T07:17:27.923Z,56.10
2023-08-08T07:19:55.918Z,56.00
2023-08-08T07:22:23.695Z,55.50
2023-08-08T07:24:51.488Z,55.90
2023-08-08T07:27:20.649Z,56.40
2023-08-08T07:29:48.456Z,57.60
2023-08-08T07:32:16.357Z,56.40
2023-08-08T07:34:44.165Z,57.00
2023-08-08T07:37:12.146Z,56.50
2023-08-08T07:39:40.018Z,55.60
2023-08-08T07:42:08.767Z,54.50
2023-08-08T07:44:39.314Z,55.50
2023-08-08T07:47:09.110Z,54.80
2023-08-08T07:49:38.235Z,54.00
2023-08-08T07:52:08.027Z,52.30
2023-08-08T07:54:36.230Z,53.50
2023-08-08T07:57:05.070Z,50.90
2023-08-08T07:59:32.920Z,51.60
2023-08-08T08:02:02.409Z,50.90
2023-08-08T08:04:30.605Z,50.60
2023-08-08T08:06:58.675Z,49.00
2023-08-08T08:09:26.618Z,51.00
2023-08-08T08:11:54.569Z,51.30
2023-08-08T08:14:23.470Z,49.80
2023-08-08T08:16:51.514Z,51.10
2023-08-08T08:19:21.396Z,49.90
2023-08-08T08:21:49.219Z,50.40
2023-08-08T08:24:17.184Z,50.60
2023-08-08T08:26:46.912Z,49.90
2023-08-08T08:29:14.764Z,51.20
2023-08-08T08:31:42.569Z,51.30
2023-08-08T08:34:10.416Z,52.50
2023-08-08T08:36:39.568Z,50.30
2023-08-08T08:39:08.152Z,51.50
2023-08-08T08:41:38.292Z,50.70
2023-08-08T08:44:06.829Z,50.50
2023-08-08T08:46:37.676Z,52.80
2023-08-08T08:49:09.590Z,53.60
2023-08-08T08:51:38.963Z,54.50
2023-08-08T08:54:07.394Z,54.60
2023-08-08T08:56:35.606Z,54.70
2023-08-08T08:59:04.238Z,53.60
2023-08-08T09:01:32.383Z,52.40
2023-08-08T09:04:01.008Z,53.00
2023-08-08T09:06:30.026Z,53.90
2023-08-08T09:09:11.060Z,53.00
2023-08-08T09:11:44.874Z,49.70
2023-08-08T09:14:18.716Z,50.10
2023-08-08T09:16:47.476Z,50.40
2023-08-08T09:19:16.131Z,49.80
2023-08-08T09:21:44.168Z,50.40
2023-08-08T09:24:13.680Z,50.70
2023-08-08T09:26:41.912Z,49.60
2023-08-08T09:29:10.493Z,46.70
2023-08-08T09:31:38.431Z,48.40
2023-08-08T09:34:07.101Z,47.40
2023-08-08T09:36:36.157Z,47.10
2023-08-08T09:39:04.417Z,48.50
2023-08-08T09:41:33.773Z,47.60
2023-08-08T09:44:02.542Z,46.70
2023-08-08T09:46:32.920Z,46.90
2023-08-08T09:49:01.223Z,47.50
2023-08-08T09:51:29.552Z,47.50
2023-08-08T09:53:58.283Z,47.50
2023-08-08T09:56:27.334Z,47.70
2023-08-08T09:58:57.254Z,48.50
2023-08-08T10:01:27.174Z,48.10
2023-08-08T10:03:55.233Z,47.10
2023-08-08T10:06:23.111Z,48.10
2023-08-08T10:08:52.309Z,47.20
2023-08-08T10:11:23.407Z,47.50
2023-08-08T10:13:52.033Z,47.40
2023-08-08T10:16:21.745Z,48.10
2023-08-08T10:18:57.719Z,47.70
2023-08-08T10:21:26.103Z,46.20
2023-08-08T10:24:04.682Z,47.20
2023-08-08T10:26:33.053Z,46.30
2023-08-08T10:29:02.369Z,46.00
2023-08-08T10:31:37.400Z,45.80
2023-08-08T10:34:07.182Z,46.90
2023-08-08T10:36:51.465Z,46.30
2023-08-08T10:39:20.309Z,46.70
2023-08-08T10:41:49.842Z,46.00
2023-08-08T10:44:25.138Z,45.60
2023-08-08T10:46:57.714Z,45.90
2023-08-08T10:49:25.896Z,44.90
2023-08-08T10:51:53.794Z,44.10
2023-08-08T10:54:24.353Z,44.90
2023-08-08T10:56:53.416Z,44.60
2023-08-08T10:59:24.666Z,44.40
2023-08-08T11:01:57.513Z,46.50
2023-08-08T11:04:27.393Z,45.90
2023-08-08T11:06:55.896Z,46.20
2023-08-08T11:09:24.341Z,46.20
2023-08-08T11:11:52.211Z,45.50
2023-08-08T11:14:22.212Z,43.20
2023-08-08T11:16:52.004Z,43.60
2023-08-08T11:19:22.374Z,43.80
2023-08-08T11:21:51.106Z,44.10
2023-08-08T11:24:19.085Z,44.00
2023-08-08T11:26:48.600Z,44.70
2023-08-08T11:29:16.917Z,43.30
2023-08-08T11:31:44.854Z,44.30
2023-08-08T11:34:13.774Z,45.10
2023-08-08T11:36:43.125Z,46.20
2023-08-08T11:39:11.839Z,45.30
2023-08-08T11:41:41.769Z,46.70
2023-08-08T11:44:10.150Z,47.70
2023-08-08T11:46:45.940Z,47.80
2023-08-08T11:49:16.718Z,47.80
2023-08-08T11:51:47.301Z,46.70
2023-08-08T11:54:15.899Z,46.10
2023-08-08T11:56:43.839Z,45.10
2023-08-08T11:59:13.320Z,45.30
2023-08-08T12:01:43.444Z,45.30
2023-08-08T12:04:11.575Z,43.60
2023-08-08T12:06:41.031Z,44.10
2023-08-08T12:09:12.982Z,42.70
2023-08-08T12:11:41.400Z,42.40
2023-08-08T12:14:10.525Z,42.90
2023-08-08T12:16:40.869Z,42.70
2023-08-08T12:19:12.063Z,42.20
2023-08-08T12:21:39.916Z,43.70
2023-08-08T12:24:08.617Z,44.10
2023-08-08T12:26:38.464Z,44.40
2023-08-08T12:29:06.703Z,41.00
2023-08-08T12:31:34.763Z,42.90
2023-08-08T12:34:03.409Z,42.90
2023-08-08T12:36:31.262Z,41.00
2023-08-08T12:38:59.876Z,43.40
2023-08-08T12:41:28.034Z,42.10
2023-08-08T12:43:57.200Z,43.50
2023-08-08T12:46:25.346Z,43.50
2023-08-08T12:48:53.672Z,44.00
2023-08-08T12:51:21.502Z,43.40
2023-08-08T12:53:49.271Z,42.90
2023-08-08T12:56:17.238Z,42.00
2023-08-08T12:58:45.086Z,43.10
2023-08-08T13:01:14.387Z,41.80
2023-08-08T13:03:45.463Z,42.60
2023-08-08T13:06:19.005Z,43.90
2023-08-08T13:08:46.811Z,44.00
2023-08-08T13:11:14.635Z,41.80
2023-08-08T13:13:42.408Z,42.20
2023-08-08T13:16:11.845Z,42.00
2023-08-08T13:18:41.035Z,43.10
2023-08-08T13:21:09.117Z,42.20
2023-08-08T13:23:36.936Z,41.90
2023-08-08T13:26:04.876Z,41.10
2023-08-08T13:28:32.759Z,41.00
2023-08-08T13:31:01.930Z,41.00
2023-08-08T13:33:29.846Z,41.50
2023-08-08T13:35:58.983Z,42.60
2023-08-08T13:38:26.805Z,42.80
2023-08-08T13:40:54.749Z,43.40
2023-08-08T13:43:22.558Z,44.40
2023-08-08T13:45:51.521Z,45.00
2023-08-08T13:48:19.742Z,45.30
2023-08-08T13:50:47.555Z,45.20
2023-08-08T13:53:16.692Z,46.20
2023-08-08T13:55:45.638Z,46.60
2023-08-08T13:58:13.519Z,46.80
2023-08-08T14:00:42.062Z,47.10
2023-08-08T14:03:09.980Z,47.60
2023-08-08T14:05:38.192Z,46.70
2023-08-08T14:08:06.812Z,48.00
2023-08-08T14:10:36.127Z,47.80
2023-08-08T14:13:04.187Z,47.70
2023-08-08T14:15:34.391Z,48.20
2023-08-08T14:18:02.220Z,47.40
2023-08-08T14:20:30.056Z,47.20
2023-08-08T14:22:57.924Z,46.30
2023-08-08T14:25:25.749Z,47.10
2023-08-08T14:27:54.896Z,47.90
2023-08-08T14:30:23.298Z,48.60
2023-08-08T14:32:51.914Z,47.30
2023-08-08T14:35:19.832Z,48.10
2023-08-08T14:37:47.739Z,47.80
2023-08-08T14:40:15.571Z,48.20
2023-08-08T14:42:43.388Z,48.30
2023-08-08T14:45:12.906Z,48.30
2023-08-08T14:47:40.774Z,48.90
2023-08-08T14:50:10.062Z,47.90
2023-08-08T14:52:37.905Z,48.70
2023-08-08T14:55:06.728Z,48.50
2023-08-08T14:57:34.761Z,49.50
2023-08-08T15:00:02.676Z,47.90
2023-08-08T15:02:31.994Z,48.90
2023-08-08T15:04:59.910Z,47.20
2023-08-08T15:07:27.712Z,47.10
2023-08-08T15:09:55.509Z,47.20
2023-08-08T15:12:23.396Z,48.10
2023-08-08T15:14:51.896Z,48.70
2023-08-08T15:17:19.749Z,48.50
2023-08-08T15:19:48.909Z,48.40
2023-08-08T15:22:16.713Z,48.70
2023-08-08T15:24:44.721Z,48.10
2023-08-08T15:27:12.609Z,48.50
2023-08-08T15:29:40.446Z,49.10
2023-08-08T15:32:08.467Z,49.00
2023-08-08T15:34:37.340Z,49.20
2023-08-08T15:37:06.618Z,48.90
2023-08-08T15:39:34.621Z,49.80
2023-08-08T15:42:02.430Z,50.20
2023-08-08T15:44:30.264Z,49.80
2023-08-08T15:46:58.123Z,50.10
2023-08-08T15:49:26.515Z,50.10
2023-08-08T15:51:57.613Z,49.80
2023-08-08T15:54:26.912Z,49.10
2023-08-08T15:56:54.847Z,49.20
2023-08-08T15:59:23.305Z,49.70
2023-08-08T16:01:51.094Z,50.10
2023-08-08T16:04:18.955Z,50.40
2023-08-08T16:06:48.046Z,50.00
2023-08-08T16:09:15.925Z,50.20
2023-08-08T16:11:45.097Z,50.10
2023-08-08T16:14:12.896Z,50.00
2023-08-08T16:16:40.810Z,49.80
2023-08-08T16:19:08.625Z,49.10
2023-08-08T16:21:36.438Z,50.20
2023-08-08T16:24:04.524Z,49.90
2023-08-08T16:26:32.393Z,50.30
2023-08-08T16:29:01.519Z,49.90
2023-08-08T16:31:29.395Z,50.10
2023-08-08T16:33:57.220Z,50.80
2023-08-08T16:36:25.226Z,49.40
2023-08-08T16:38:55.331Z,50.20
2023-08-08T16:41:25.353Z,48.80
2023-08-08T16:44:01.804Z,49.40
2023-08-08T16:46:31.005Z,49.70
2023-08-08T16:48:59.272Z,50.20
2023-08-08T16:51:27.115Z,50.10
2023-08-08T16:53:54.950Z,49.80
2023-08-08T16:56:22.922Z,50.60
2023-08-08T16:58:50.723Z,50.70
2023-08-08T17:01:18.625Z,50.30
2023-08-08T17:03:47.854Z,49.80
2023-08-08T17:06:15.750Z,51.50
2023-08-08T17:08:43.576Z,51.70
2023-08-08T17:11:11.394Z,51.60
2023-08-08T17:13:39.205Z,51.20
2023-08-08T17:16:07.313Z,52.10
2023-08-08T17:18:35.197Z,52.00
2023-08-08T17:21:04.571Z,52.20
2023-08-08T17:23:32.368Z,51.50
2023-08-08T17:26:00.199Z,51.50
2023-08-08T17:28:27.989Z,51.70
2023-08-08T17:30:55.925Z,51.40
2023-08-08T17:33:23.922Z,51.50
2023-08-08T17:35:51.821Z,52.00
2023-08-08T17:38:20.966Z,52.50
2023-08-08T17:40:48.781Z,53.20
2023-08-08T17:43:16.590Z,53.60
2023-08-08T17:45:44.422Z,53.70
2023-08-08T17:48:12.224Z,54.30
2023-08-08T17:50:40.031Z,54.20
2023-08-08T17:53:07.850Z,54.40
2023-08-08T17:55:37.086Z,55.00
2023-08-08T17:58:05.230Z,55.00
2023-08-08T18:00:33.216Z,55.20
2023-08-08T18:03:01.131Z,55.00
2023-08-08T18:05:30.477Z,55.30
2023-08-08T18:07:58.362Z,55.70
2023-08-08T18:10:26.181Z,56.40
2023-08-08T18:12:55.389Z,56.50
2023-08-08T18:15:23.232Z,57.10
2023-08-08T18:17:51.107Z,57.70
2023-08-08T18:20:19.056Z,57.60
2023-08-08T18:22:46.893Z,58.20
2023-08-08T18:25:15.792Z,58.40
2023-08-08T18:27:43.630Z,58.70
2023-08-08T18:30:15.418Z,59.20
2023-08-08T18:32:43.520Z,59.80
2023-08-08T18:35:11.579Z,60.10
2023-08-08T18:37:41.378Z,61.10
2023-08-08T18:40:12.924Z,60.90
2023-08-08T18:42:41.066Z,61.20
2023-08-08T18:45:09.750Z,61.30
2023-08-08T18:47:38.942Z,61.90
2023-08-08T18:50:08.059Z,63.40
2023-08-08T18:52:36.337Z,64.60
2023-08-08T18:55:04.445Z,65.40
2023-08-08T18:57:33.254Z,65.80
2023-08-08T19:00:01.210Z,66.00
2023-08-08T19:02:29.125Z,66.30
2023-08-08T19:04:58.385Z,66.90
2023-08-08T19:07:26.222Z,67.10
2023-08-08T19:09:54.063Z,67.20
2023-08-08T19:12:22.904Z,67.40
2023-08-08T19:14:50.757Z,67.20
2023-08-08T19:17:18.636Z,67.40
2023-08-08T19:19:46.489Z,67.60
2023-08-08T19:22:15.629Z,67.70
2023-08-08T19:24:43.433Z,67.70
2023-08-08T19:27:11.261Z,68.00
2023-08-08T19:29:39.092Z,68.30
2023-08-08T19:32:07.108Z,68.30
2023-08-08T19:34:34.965Z,68.40
2023-08-08T19:37:02.817Z,68.80
2023-08-08T19:39:33.117Z,68.60
2023-08-08T19:42:01.956Z,68.50
2023-08-08T19:44:29.928Z,68.50
2023-08-08T19:46:58.080Z,68.60
2023-08-08T19:49:25.879Z,68.50
2023-08-08T19:51:53.679Z,68.30
2023-08-08T19:54:21.500Z,68.50
2023-08-08T19:56:50.892Z,68.40
2023-08-08T19:59:18.680Z,68.70
2023-08-08T20:01:46.592Z,69.10
2023-08-08T20:04:14.654Z,69.30
2023-08-08T20:06:42.565Z,68.80
2023-08-08T20:09:10.541Z,68.80
2023-08-08T20:11:42.305Z,69.00
2023-08-08T20:14:11.699Z,69.40
2023-08-08T20:16:39.533Z,69.60
2023-08-08T20:19:08.165Z,70.10
2023-08-08T20:21:35.993Z,70.40
2023-08-08T20:24:05.123Z,70.60
2023-08-08T20:26:32.990Z,70.70
2023-08-08T20:29:00.834Z,71.10
2023-08-08T20:31:30.038Z,71.00
2023-08-08T20:33:58.157Z,70.80
2023-08-08T20:36:26.144Z,71.00
2023-08-08T20:38:53.957Z,71.20
2023-08-08T20:41:22.037Z,71.10
2023-08-08T20:43:49.874Z,71.20
2023-08-08T20:46:17.703Z,70.70
2023-08-08T20:48:46.976Z,70.70
2023-08-08T20:51:14.796Z,71.60
2023-08-08T20:53:42.678Z,71.70
2023-08-08T20:56:10.537Z,71.50
2023-08-08T20:58:38.361Z,71.40
2023-08-08T21:01:06.200Z,71.10
2023-08-08T21:03:34.086Z,71.20
2023-08-08T21:06:04.535Z,71.50
2023-08-08T21:08:36.347Z,71.30
2023-08-08T21:11:04.742Z,70.90
2023-08-08T21:13:32.684Z,70.60
2023-08-08T21:16:00.506Z,70.20
2023-08-08T21:18:28.413Z,69.90
2023-08-08T21:20:56.406Z,69.50
2023-08-08T21:23:25.739Z,69.20
2023-08-08T21:25:53.568Z,70.20
2023-08-08T21:28:21.376Z,70.80
2023-08-08T21:30:50.261Z,71.20
2023-08-08T21:33:18.073Z,70.80
2023-08-08T21:35:45.908Z,70.20
2023-08-08T21:38:13.724Z,70.50
2023-08-08T21:40:42.878Z,70.10
2023-08-08T21:43:10.668Z,70.10
2023-08-08T21:45:39.182Z,69.40
2023-08-08T21:48:07.335Z,69.00
2023-08-08T21:50:35.166Z,68.60
2023-08-08T21:53:03.173Z,68.30
2023-08-08T21:55:31.104Z,68.20
2023-08-08T21:58:00.245Z,68.20
2023-08-08T22:00:28.374Z,68.70
2023-08-08T22:02:56.384Z,68.80
2023-08-08T22:05:24.354Z,69.20
2023-08-08T22:07:52.155Z,69.20
2023-08-08T22:10:20.055Z,69.10
2023-08-08T22:12:47.900Z,68.70
2023-08-08T22:15:17.072Z,68.60
2023-08-08T22:17:53.364Z,68.50
2023-08-08T22:20:24.969Z,68.40
2023-08-08T22:22:54.467Z,68.40
2023-08-08T22:25:22.542Z,68.00
2023-08-08T22:27:50.350Z,68.00
2023-08-08T22:30:19.584Z,67.70
2023-08-08T22:32:49.228Z,67.90
2023-08-08T22:35:17.076Z,67.80
2023-08-08T22:37:44.950Z,67.40
2023-08-08T22:40:13.787Z,66.80
2023-08-08T22:42:42.379Z,66.30
2023-08-08T22:45:11.515Z,66.20
2023-08-08T22:47:40.740Z,66.00
2023-08-08T22:50:09.955Z,65.60
2023-08-08T22:52:37.969Z,65.40
2023-08-08T22:55:06.456Z,65.30
2023-08-08T22:57:34.254Z,65.50
2023-08-08T23:00:02.114Z,65.30
2023-08-08T23:02:29.949Z,65.10
2023-08-08T23:04:59.088Z,64.70
2023-08-08T23:07:27.027Z,64.60
2023-08-08T23:09:54.851Z,64.50
2023-08-08T23:12:22.698Z,64.60
2023-08-08T23:14:50.501Z,64.70
2023-08-08T23:17:18.353Z,64.30
2023-08-08T23:19:46.148Z,64.00
2023-08-08T23:22:15.277Z,64.10
2023-08-08T23:24:43.135Z,64.10
2023-08-08T23:27:11.012Z,64.20
2023-08-08T23:29:38.930Z,64.00
2023-08-08T23:32:06.971Z,64.40
2023-08-08T23:34:35.023Z,64.60
2023-08-08T23:37:03.055Z,64.40
2023-08-08T23:39:33.912Z,64.50
2023-08-08T23:42:01.714Z,64.30
2023-08-08T23:44:29.524Z,64.20
2023-08-08T23:46:57.374Z,64.30
2023-08-08T23:49:25.416Z,64.30
2023-08-08T23:51:53.228Z,64.30
2023-08-08T23:54:21.023Z,64.40
2023-08-08T23:56:50.164Z,63.90
2023-08-08T23:59:17.979Z,64.20
